Home > Products > Valid Products > TAF

000
FTUS45 KVEF 190800 AAA
TAFLAS
TAF AMD
KLAS 190846Z 1909/2006 16012KT P6SM SCT100 BKN150
     FM191900 06007KT P6SM FEW100 SCT150
     FM200300 19007KT P6SM SCT150=



000
FTUS45 KVEF 190500
TAFLAS
TAF
KLAS 190520Z 1906/2006 18011KT P6SM SCT150 BKN200
     FM190900 17008KT P6SM SCT100 BKN150
     FM191900 06007KT P6SM FEW100 SCT150
     FM200300 19007KT P6SM SCT150=



000
FTUS45 KVEF 190500
TAFDAG
TAF
KDAG 190520Z 1906/2006 25009KT P6SM SCT100 BKN150
     FM191600 30008KT P6SM SCT100
     FM200000 26011KT P6SM SCT120=



000
FTUS45 KVEF 190500
TAFBIH
TAF
KBIH 190520Z 1906/2006 34009KT P6SM SCT100 SCT150
     FM191900 16009KT P6SM SCT100 SCT150
     FM192200 16009KT P6SM VCSH SCT100 BKN150
     FM200200 35008KT P6SM SCT100=



000
FTUS45 KVEF 190500
TAFVGT
TAF
KVGT 190520Z 1906/2006 16008KT P6SM SCT150 BKN200
     FM190900 16008KT P6SM SCT100 BKN150
     FM191900 14006KT P6SM FEW100 SCT150
     FM200300 11006KT P6SM SCT150=



000
FTUS45 KVEF 190500
TAFEED
TAF
KEED 190520Z 1906/2006 16008KT P6SM SCT100 BKN150
     FM191000 VRB05KT P6SM SCT100 BKN150
     FM191900 12007KT P6SM SCT100 SCT150
     FM200200 23006KT P6SM SCT120=



000
FTUS45 KVEF 190200 AAA
TAFLAS
TAF AMD
KLAS 190208Z 1902/1924 19009KT P6SM FEW100 SCT150 BKN250
     FM191100 VRB05KT P6SM SCT100 BKN150
     FM191900 06007KT P6SM SCT100 SCT150=



000
FTUS45 KVEF 182300
TAFVGT
TAF
KVGT 182320Z 1900/1924 16011G18KT P6SM FEW100 BKN150 OVC200
     FM190300 18008KT P6SM SCT100 BKN150
     FM191100 VRB05KT P6SM SCT100 BKN150
     FM191900 15006KT P6SM SCT100 SCT150=



000
FTUS45 KVEF 182300
TAFDAG
TAF
KDAG 182320Z 1900/1924 15010KT P6SM SCT100 SCT150 OVC200
     FM190200 21011KT P6SM SCT100 SCT150 OVC200
     FM190400 25009KT P6SM SCT100 SCT150
     FM191500 30008KT P6SM SCT100=



000
FTUS45 KVEF 182300
TAFLAS
TAF
KLAS 182320Z 1900/1924 17011G19KT P6SM FEW100 BKN150 OVC200
     FM190500 19009KT P6SM SCT100 BKN150
     FM191100 VRB05KT P6SM SCT100 BKN150
     FM191900 06007KT P6SM SCT100 SCT150=



000
FTUS45 KVEF 182300
TAFEED
TAF
KEED 182320Z 1900/1924 19011G19KT P6SM SCT110 BKN150
     FM191000 VRB05KT P6SM SCT100 BKN150
     FM191900 19009KT P6SM FEW100 SCT150=



000
FTUS45 KVEF 182300
TAFBIH
TAF
KBIH 182320Z 1900/1924 17013G21KT P6SM VCSH SCT100CB BKN150
      TEMPO 1900/1902 VRB20G30KT
     FM190300 15010KT P6SM SCT100 BKN150
     FM190800 34009KT P6SM SCT100 SCT150
     FM191900 16009KT P6SM SCT100 SCT150
     FM192200 16009KT P6SM VCSH SCT100CB BKN150=



000
FTUS45 KVEF 182100 AAA
TAFDAG
TAF AMD
KDAG 182106Z 1821/1918 07008KT P6SM SCT100 SCT150 OVC200
     FM182200 15011G20KT P6SM SCT100 SCT150 OVC200
     FM190000 21011KT P6SM SCT100 SCT150 OVC200
     FM190300 25009KT P6SM SCT100 BKN150=



000
FTUS45 KVEF 182100 AAA
TAFLAS
TAF AMD
KLAS 182106Z 1821/1918 17012G20KT P6SM FEW100 BKN150 OVC200
     FM190500 19009KT P6SM SCT100 BKN150
     FM191100 VRB05KT P6SM SCT100 BKN150
     FM191500 05006KT P6SM SCT100 BKN150=



000
FTUS45 KVEF 181700
TAFBIH
TAF
KBIH 181728Z 1818/1918 16011KT P6SM FEW100 SCT150 BKN200
     FM182300 17011G20KT P6SM VCTS SCT100CB BKN150
      TEMPO 1823/1902 VRB15G30KT
     FM190300 15008KT P6SM SCT100 BKN150
     FM190800 34009KT P6SM SCT100 SCT150=



000
FTUS45 KVEF 181700
TAFDAG
TAF
KDAG 181728Z 1818/1918 07008KT P6SM SCT150 OVC200
     FM182000 15011G20KT P6SM FEW100 SCT150 OVC200
     FM190000 21011KT P6SM SCT100 SCT150 OVC200
     FM190300 25009KT P6SM SCT100 BKN150=



000
FTUS45 KVEF 181700
TAFLAS
TAF
KLAS 181728Z 1818/1918 17014G23KT P6SM FEW100 BKN150 OVC200
     FM190500 19009KT P6SM SCT100 BKN150
     FM191100 VRB05KT P6SM SCT100 BKN150
     FM191500 05006KT P6SM SCT100 BKN150=



000
FTUS45 KVEF 181700
TAFEED
TAF
KEED 181728Z 1818/1918 19014G24KT P6SM BKN150 OVC200
     FM190200 16009KT P6SM SCT100 BKN150
     FM191000 VRB04KT P6SM SCT100 BKN150=



000
FTUS45 KVEF 181700
TAFVGT
TAF
KVGT 181728Z 1818/1918 16012G20KT P6SM FEW100 BKN150 OVC200
     FM190300 18011KT P6SM SCT100 BKN150
     FM191100 VRB05KT P6SM SCT100 BKN150=



000
FTUS45 KVEF 181400 AAA
TAFLAS
TAF AMD
KLAS 181448Z 1815/1912 VRB05KT P6SM OVC200
     FM181700 10008KT P6SM SCT150 OVC200
     FM181900 17012G20KT P6SM FEW100 BKN150 OVC200
     FM190500 19009KT P6SM SCT100 BKN200
     FM191100 30007KT P6SM SCT100 BKN200=



000
FTUS45 KVEF 181100
TAFLAS
TAF
KLAS 181127Z 1812/1912 18008KT P6SM BKN250
     FM181400 15006KT P6SM BKN250
     FM182200 18012G20KT P6SM BKN100 BKN250
     FM190500 19009KT P6SM SCT100 BKN200
     FM191100 30007KT P6SM SCT100 BKN200=



000
FTUS45 KVEF 181100
TAFVGT
TAF
KVGT 181127Z 1812/1912 15006KT P6SM BKN250
     FM181800 16010G20KT P6SM BKN100 BKN250
     FM190100 19011KT P6SM SCT100 BKN200
     FM191100 31008KT P6SM SCT100 BKN200=



000
FTUS45 KVEF 181100
TAFDAG
TAF
KDAG 181127Z 1812/1912 26010KT P6SM BKN200
     FM182000 20013G24KT P6SM VCTS BKN100CB BKN200
     FM190000 22011KT P6SM SCT100 BKN200=



000
FTUS45 KVEF 181100
TAFBIH
TAF
KBIH 181127Z 1812/1912 34008KT P6SM BKN100 OVC200
     FM181800 17009G15KT P6SM BKN100 BKN200
     FM182200 17012G20KT P6SM VCTS BKN100CB BKN150
     FM190200 15008KT P6SM SCT150 BKN200
     FM190800 35009KT P6SM BKN200=



000
FTUS45 KVEF 181100
TAFEED
TAF
KEED 181127Z 1812/1912 24005KT P6SM BKN200
     FM181700 19014G24KT P6SM BKN150 BKN200
     FM190200 15008KT P6SM BKN120=



000
FTUS45 KVEF 181000 AAB
TAFLAS
TAF AMD
KLAS 181027Z 1810/1906 18008KT P6SM BKN250
     FM181400 15006KT P6SM BKN250
     FM182200 18012G20KT P6SM BKN100 BKN250=



000
FTUS45 KVEF 180900 AAA
TAFLAS
TAF AMD
KLAS 180904Z 1809/1906 18008KT P6SM BKN250
     FM182000 18012G20KT P6SM BKN150
     FM190200 16010KT P6SM BKN120=



000
FTUS45 KVEF 180500
TAFVGT
TAF
KVGT 180520Z 1806/1906 20010KT P6SM BKN200
     FM181200 15006KT P6SM BKN200
     FM181800 16010G20KT P6SM BKN150
     FM190100 19011KT P6SM BKN120=



000
FTUS45 KVEF 180500
TAFDAG
TAF
KDAG 180520Z 1806/1906 26010KT P6SM BKN200
     FM181500 30009KT P6SM BKN150
     FM182000 06010KT P6SM BKN120
     FM190100 22011KT P6SM BKN120=



000
FTUS45 KVEF 180500
TAFEED
TAF
KEED 180520Z 1806/1906 21011KT P6SM BKN200
     FM181300 VRB05KT P6SM BKN200
     FM181900 19014G24KT P6SM BKN150
     FM190200 15008KT P6SM BKN120=



000
FTUS45 KVEF 180500
TAFLAS
TAF
KLAS 180520Z 1806/1906 16011KT P6SM BKN200
     FM182000 18012G20KT P6SM BKN150
     FM190200 16010KT P6SM BKN120=



000
FTUS45 KVEF 180500
TAFBIH
TAF
KBIH 180520Z 1806/1906 34008KT P6SM BKN200
     FM181900 17009KT P6SM SCT100 BKN150
     FM182200 17009KT P6SM VCTS SCT100CB BKN150
      TEMPO 1822/1902 BKN100CB
     FM190200 15008KT P6SM BKN150=



000
FTUS45 KVEF 180200 AAA
TAFLAS
TAF AMD
KLAS 180238Z 1803/1824 18011KT P6SM OVC250
     FM181200 20007KT P6SM OVC200
     FM181800 18010KT P6SM SCT150 OVC200=



000
FTUS45 KVEF 172300
TAFDAG
TAF
KDAG 172320Z 1800/1824 15011G20KT P6SM OVC250
     FM180200 21012KT P6SM OVC250
     FM180400 25012KT P6SM SCT150 OVC200
     FM181200 29009KT P6SM BKN150
     FM182000 03010KT P6SM SCT100 BKN150=



000
FTUS45 KVEF 172300
TAFBIH
TAF
KBIH 172320Z 1800/1824 17016G26KT P6SM OVC250
     FM180200 17013KT P6SM SCT150 OVC200
     FM180800 33008KT P6SM SCT150 OVC200
     FM181900 17009KT P6SM SCT100 BKN150
     FM182200 17009KT P6SM VCTS SCT100CB BKN150
      TEMPO 1822/1824 VRB20G30KT BKN100CB=



000
FTUS45 KVEF 172300
TAFLAS
TAF
KLAS 172320Z 1800/1824 18012G20KT P6SM BKN250
     FM180300 19011KT P6SM OVC250
     FM181200 20007KT P6SM OVC200
     FM181800 18010KT P6SM SCT150 OVC200=



000
FTUS45 KVEF 172300
TAFEED
TAF
KEED 172320Z 1800/1824 20013G23KT P6SM OVC250
     FM180300 22011KT P6SM OVC250
     FM181000 VRB05KT P6SM OVC200
     FM181800 19013G23KT P6SM SCT150 OVC200=



000
FTUS45 KVEF 172300
TAFVGT
TAF
KVGT 172320Z 1800/1824 15010KT P6SM BKN250
     FM180400 20010KT P6SM OVC250
     FM181300 VRB04KT P6SM OVC200
     FM181800 16012KT P6SM SCT150 OVC200=



000
FTUS45 KVEF 172100 AAB
TAFLAS
TAF AMD
KLAS 172120Z 1721/1818 09008KT P6SM BKN250
      TEMPO 1722/1723 14010G17KT
     FM172300 18012G20KT P6SM BKN250
     FM180300 19011KT P6SM OVC250
     FM181200 20007KT P6SM OVC200=



000
FTUS45 KVEF 172000 AAA
TAFLAS
TAF AMD
KLAS 172053Z 1721/1818 07008KT P6SM BKN250
      TEMPO 1723/1801 16009KT
     FM180100 18012G20KT P6SM BKN250
     FM180300 19011KT P6SM OVC250
     FM181200 20007KT P6SM OVC200=



000
FTUS45 KVEF 172000 AAA
TAFVGT
TAF AMD
KVGT 172053Z 1721/1818 15010KT P6SM BKN250
     FM180400 19010KT P6SM OVC250
     FM181200 15007KT P6SM OVC200=



000
FTUS45 KVEF 171700
TAFDAG
TAF
KDAG 171728Z 1718/1818 32008KT P6SM OVC250
     FM172000 12011G20KT P6SM OVC250
     FM180000 21012G20KT P6SM OVC250
     FM180400 25012KT P6SM OVC200=



000
FTUS45 KVEF 171700
TAFVGT
TAF
KVGT 171728Z 1718/1818 14010KT P6SM FEW250
     FM172300 19012G20KT P6SM BKN250
     FM180300 19010KT P6SM OVC250
     FM181200 15007KT P6SM OVC200=



000
FTUS45 KVEF 171700
TAFBIH
TAF
KBIH 171728Z 1718/1818 VRB05KT P6SM BKN250
     FM171900 17016G26KT P6SM FEW120 OVC250
     FM180200 17013KT P6SM SCT150 OVC200
     FM180600 33008KT P6SM SCT150 OVC200=



000
FTUS45 KVEF 171700
TAFLAS
TAF
KLAS 171728Z 1718/1818 06008KT P6SM FEW250
      TEMPO 1721/1723 13009KT
     FM172300 18014G22KT P6SM BKN250
     FM180300 19011KT P6SM OVC250
     FM181200 20007KT P6SM OVC200=



000
FTUS45 KVEF 171700
TAFEED
TAF
KEED 171728Z 1718/1818 17008KT P6SM SCT250
     FM172000 19013G23KT P6SM OVC250
     FM180300 22011KT P6SM OVC250
     FM181000 25007KT P6SM OVC200=



000
FTUS45 KVEF 171400 AAA
TAFLAS
TAF AMD
KLAS 171442Z 1715/1812 VRB04KT P6SM SKC
     FM171800 06007KT P6SM FEW250
     FM172200 18012G20KT P6SM BKN250
     FM180300 19011KT P6SM OVC250=



000
FTUS45 KVEF 171100
TAFDAG
TAF
KDAG 171120Z 1712/1812 26011KT P6SM FEW250
     FM171600 30008KT P6SM SCT250
     FM171800 08010G18KT P6SM BKN250
     FM180000 23012G22KT P6SM BKN250
     FM180300 25012KT P6SM BKN250=



000
FTUS45 KVEF 171100
TAFVGT
TAF
KVGT 171120Z 1712/1812 VRB05KT P6SM SKC
     FM171700 12006KT P6SM FEW250
     FM172200 19012G20KT P6SM BKN250
     FM180300 19010KT P6SM BKN250=



000
FTUS45 KVEF 171100
TAFBIH
TAF
KBIH 171120Z 1712/1812 34008KT P6SM SKC
     FM171500 VRB05KT P6SM SCT250
     FM172100 17016G26KT P6SM FEW120 SCT250
     FM180200 17011KT P6SM BKN200
     FM180600 01007KT P6SM BKN200=



000
FTUS45 KVEF 171100
TAFEED
TAF
KEED 171120Z 1712/1812 VRB05KT P6SM SKC
     FM171800 17008KT P6SM FEW250
     FM172000 19015G25KT P6SM BKN250
     FM180200 22011KT P6SM BKN250=



000
FTUS45 KVEF 171100
TAFLAS
TAF
KLAS 171120Z 1712/1812 21006KT P6SM SKC
     FM171800 06007KT P6SM FEW250
     FM172100 18012G20KT P6SM BKN250
     FM180300 19011KT P6SM BKN250=



000
FTUS45 KVEF 170800 AAA
TAFLAS
TAF AMD
KLAS 170848Z 1709/1806 35008KT P6SM FEW250
     FM171800 06008KT P6SM FEW250
     FM172100 18012G20KT P6SM FEW250
     FM180300 20011KT P6SM BKN250=



000
FTUS45 KVEF 170500
TAFBIH
TAF
KBIH 170520Z 1706/1806 01012G20KT P6SM FEW250
     FM170800 36008KT P6SM FEW250
     FM171500 VRB05KT P6SM FEW250
     FM172100 17016G26KT P6SM FEW120 SCT250
     FM180200 15011KT P6SM BKN200=



000
FTUS45 KVEF 170500
TAFDAG
TAF
KDAG 170520Z 1706/1806 26011KT P6SM FEW250
     FM171600 30008KT P6SM FEW250
     FM171800 08010G18KT P6SM FEW250
     FM180000 23012G22KT P6SM BKN250=



000
FTUS45 KVEF 170500
TAFLAS
TAF
KLAS 170520Z 1706/1806 VRB05KT P6SM FEW250
     FM171800 06008KT P6SM FEW250
     FM172100 18012G20KT P6SM FEW250
     FM180300 20011KT P6SM BKN250=



000
FTUS45 KVEF 170500
TAFEED
TAF
KEED 170520Z 1706/1806 24007KT P6SM FEW250
     FM171200 VRB05KT P6SM FEW250
     FM171800 17008KT P6SM FEW250
     FM172000 19015G25KT P6SM FEW250
     FM180200 22011KT P6SM BKN250=



000
FTUS45 KVEF 170500
TAFVGT
TAF
KVGT 170520Z 1706/1806 33006KT P6SM FEW250
     FM171700 12006KT P6SM FEW250
     FM172200 19012G20KT P6SM FEW250
     FM180300 19010KT P6SM BKN250=



000
FTUS45 KVEF 170200 AAA
TAFLAS
TAF AMD
KLAS 170244Z 1703/1724 08008KT P6SM FEW250
     FM170400 19007KT P6SM FEW250
     FM171200 VRB05KT P6SM FEW250
     FM171800 06008KT P6SM FEW250
     FM172100 18012KT P6SM FEW250=



000
FTUS45 KVEF 162300
TAFDAG
TAF
KDAG 162320Z 1700/1724 32007KT P6SM FEW250
     FM170200 25012KT P6SM FEW250
     FM171200 25007KT P6SM FEW250
     FM171900 11013KT P6SM FEW250=



000
FTUS45 KVEF 162300
TAFBIH
TAF
KBIH 162320Z 1700/1724 32006KT P6SM FEW250
     FM171700 16009KT P6SM FEW250
     FM172100 18015G20KT P6SM FEW150 SCT200=



000
FTUS45 KVEF 162300
TAFLAS
TAF
KLAS 162320Z 1700/1724 VRB05KT P6SM FEW250
     FM170400 19007KT P6SM FEW250
     FM171200 VRB05KT P6SM FEW250
     FM171800 06008KT P6SM FEW250
     FM172100 18012KT P6SM FEW250=



000
FTUS45 KVEF 162300
TAFEED
TAF
KEED 162320Z 1700/1724 VRB05KT P6SM FEW250
     FM170300 24007KT P6SM FEW250
     FM170900 VRB05KT P6SM FEW250
     FM171800 17010KT P6SM FEW250=



000
FTUS45 KVEF 162300
TAFVGT
TAF
KVGT 162320Z 1700/1724 VRB05KT P6SM FEW250
     FM170600 33006KT P6SM FEW250
     FM171700 13009KT P6SM FEW250
     FM172200 17012KT P6SM FEW250=



000
FTUS45 KVEF 162000 AAA
TAFLAS
TAF AMD
KLAS 162047Z 1621/1718 VRB05KT P6SM FEW250
     FM170400 19007KT P6SM FEW250
     FM171200 VRB05KT P6SM SKC=



000
FTUS45 KVEF 161700
TAFEED
TAF
KEED 161720Z 1618/1718 VRB05KT P6SM FEW250
     FM170300 24007KT P6SM FEW250
     FM170900 VRB05KT P6SM SKC=



000
FTUS45 KVEF 161700
TAFLAS
TAF
KLAS 161720Z 1618/1718 05007KT P6SM FEW250
     FM170400 19007KT P6SM FEW250
     FM171200 VRB05KT P6SM SKC=



000
FTUS45 KVEF 161700
TAFBIH
TAF
KBIH 161720Z 1618/1718 VRB05KT P6SM FEW250
     FM162300 02008KT P6SM FEW250
     FM170300 32008KT P6SM FEW250=



000
FTUS45 KVEF 161700
TAFVGT
TAF
KVGT 161720Z 1618/1718 07006KT P6SM FEW250
     FM170300 13006KT P6SM FEW250
     FM170600 33006KT P6SM FEW250=



000
FTUS45 KVEF 161700
TAFDAG
TAF
KDAG 161720Z 1618/1718 32009KT P6SM FEW250
     FM170200 25012KT P6SM FEW250
     FM171200 25007KT P6SM SKC=



000
FTUS45 KVEF 161400 AAA
TAFLAS
TAF AMD
KLAS 161437Z 1615/1712 VRB05KT P6SM FEW250
     FM161800 05006KT P6SM FEW250
     FM170400 19007KT P6SM FEW250=



000
FTUS45 KVEF 161100
TAFEED
TAF
KEED 161125Z 1612/1712 VRB05KT P6SM FEW250
     FM161800 05006KT P6SM FEW250
     FM170300 24007KT P6SM FEW250=



000
FTUS45 KVEF 161100
TAFBIH
TAF
KBIH 161125Z 1612/1712 32007KT P6SM SCT250
     FM161900 03008KT P6SM SCT250
     FM170200 36008KT P6SM SCT250=



000
FTUS45 KVEF 161100
TAFDAG
TAF
KDAG 161125Z 1612/1712 25010KT P6SM FEW250
     FM161800 32008KT P6SM FEW250
     FM170200 25011KT P6SM FEW250=



000
FTUS45 KVEF 161100
TAFLAS
TAF
KLAS 161125Z 1612/1712 21008KT P6SM FEW250
     FM161300 VRB05KT P6SM FEW250
     FM161800 05006KT P6SM FEW250
     FM170400 19007KT P6SM FEW250=



000
FTUS45 KVEF 161100
TAFVGT
TAF
KVGT 161125Z 1612/1712 31006KT P6SM FEW250
     FM161800 07006KT P6SM FEW250
     FM170300 13006KT P6SM FEW250
     FM170600 33006KT P6SM FEW250=



    US Dept of Commerce
    National Oceanic and Atmospheric Administration
    National Weather Service
    1325 East West Highway
    Silver Spring, MD 20910
    Page Author: NWS Internet Services Team
Disclaimer
Information Quality
Credits
Glossary
Privacy Policy
Freedom of Information Act (FOIA)
About Us
Career Opportunities